Time;durP1;ratioP1;P1;durP2;ratioP2;P2;SDS_P1;SDS_P2;PMS_P1;PMS_P2;Temp;Humidity;BMP_temperature;BMP_pressure;BME280_temperature;BME280_humidity;BME280_pressure;Samples;Min_cycle;Max_cycle;Signal;HPM_P1;HPM_P2
2022/10/01 00:02:35;;;;;;;26.10;16.12;;;;;;;15.12;100.00;100299.19;1733583;83;21224;-82
2022/10/01 00:05:41;;;;;;;23.55;15.83;;;;;;;15.26;100.00;100298.18;1733349;83;21174;-83
2022/10/01 00:08:48;;;;;;;34.73;16.37;;;;;;;15.23;100.00;100304.09;1732816;83;21180;-83
2022/10/01 00:11:57;;;;;;;29.72;16.12;;;;;;;15.27;100.00;100304.84;1750000;81;21247;-82
2022/10/01 00:15:07;;;;;;;28.80;15.50;;;;;;;15.23;100.00;100310.98;1757141;81;21724;-82
2022/10/01 00:18:12;;;;;;;26.15;16.23;;;;;;;15.36;100.00;100315.70;1756675;81;21192;-83
2022/10/01 00:21:21;;;;;;;28.05;17.77;;;;;;;15.25;100.00;100310.27;1755783;81;21172;-82
2022/10/01 00:24:28;;;;;;;28.07;17.13;;;;;;;15.27;100.00;100319.16;1756927;81;21183;-81
2022/10/01 00:27:35;;;;;;;29.95;16.10;;;;;;;15.18;100.00;100317.64;1755877;81;21211;-81
2022/10/01 00:30:41;;;;;;;22.13;15.25;;;;;;;15.06;100.00;100314.11;1757187;81;21200;-82
2022/10/01 00:33:48;;;;;;;22.62;16.35;;;;;;;15.07;100.00;100317.72;1755764;81;21180;-82
2022/10/01 00:36:54;;;;;;;22.98;15.80;;;;;;;15.01;100.00;100313.03;1756291;81;21200;-83
2022/10/01 00:40:00;;;;;;;29.00;16.70;;;;;;;15.11;100.00;100323.14;1756494;81;21220;-83
2022/10/01 00:43:05;;;;;;;24.02;15.75;;;;;;;14.96;100.00;100327.42;1756695;81;21175;-81
2022/10/01 00:46:24;;;;;;;32.30;17.02;;;;;;;15.02;100.00;100325.22;1756998;81;21220;-81
2022/10/01 00:49:33;;;;;;;26.10;16.75;;;;;;;14.97;100.00;100324.98;1755754;81;21247;-82
2022/10/01 00:52:39;;;;;;;21.85;16.20;;;;;;;14.90;100.00;100321.86;1756945;81;21211;-82
2022/10/01 00:59:03;;;;;;;24.63;15.65;;;;;;;14.91;100.00;100321.64;1701607;84;21236;-79
2022/10/01 01:02:10;;;;;;;25.20;15.88;;;;;;;14.80;100.00;100324.98;1745399;82;21203;-79
2022/10/01 01:05:17;;;;;;;23.25;16.20;;;;;;;14.76;100.00;100324.54;1745090;82;21176;-79
2022/10/01 01:08:23;;;;;;;23.45;16.85;;;;;;;14.92;100.00;100326.13;1745290;82;21188;-79
2022/10/01 01:11:44;;;;;;;32.13;17.55;;;;;;;14.95;100.00;100331.73;1743841;82;21274;-78
2022/10/01 01:15:03;;;;;;;26.80;15.30;;;;;;;14.93;100.00;100326.97;1745389;82;21194;-79
2022/10/01 01:18:42;;;;;;;114.03;18.37;;;;;;;14.83;100.00;100334.23;1744028;82;21267;-79
2022/10/01 01:21:52;;;;;;;92.75;17.62;;;;;;;14.67;100.00;100342.80;1745182;82;21180;-79
2022/10/01 01:25:02;;;;;;;135.93;16.12;;;;;;;14.75;100.00;100339.36;1746383;82;21710;-79
2022/10/01 01:28:39;;;;;;;82.17;15.20;;;;;;;14.76;100.00;100337.45;1744320;82;21231;-79
2022/10/01 01:31:48;;;;;;;96.32;16.30;;;;;;;14.77;100.00;100330.89;1745265;82;21252;-78
2022/10/01 01:34:55;;;;;;;102.95;16.73;;;;;;;14.84;100.00;100333.17;1746295;82;21188;-78
2022/10/01 01:37:57;;;;;;;100.80;15.83;;;;;;;14.89;100.00;100333.41;1744320;82;21808;-79
2022/10/01 01:40:50;;;;;;;118.42;17.87;;;;;;;14.96;100.00;100334.30;1745724;82;21792;-79
2022/10/01 01:43:41;;;;;;;99.20;15.72;;;;;;;14.88;100.00;100335.84;1743268;82;21200;-79
2022/10/01 01:46:36;;;;;;;72.92;15.78;;;;;;;14.99;100.00;100336.63;1741440;82;21201;-79
2022/10/01 01:49:23;;;;;;;94.15;16.00;;;;;;;15.01;100.00;100334.54;1741209;82;21173;-78
2022/10/01 01:52:17;;;;;;;90.95;15.55;;;;;;;15.14;100.00;100328.22;1741407;82;21193;-78
2022/10/01 01:55:23;;;;;;;75.67;13.55;;;;;;;15.24;100.00;100329.20;1739814;82;21306;-78
2022/10/01 01:58:31;;;;;;;127.65;15.68;;;;;;;15.19;100.00;100333.95;1738670;82;21216;-79
2022/10/01 02:01:38;;;;;;;151.72;13.53;;;;;;;15.18;100.00;100330.88;1739249;82;21727;-79
2022/10/01 02:04:55;;;;;;;130.72;14.13;;;;;;;15.24;100.00;100336.97;1739351;82;21267;-79
2022/10/01 02:08:22;;;;;;;130.95;13.32;;;;;;;15.25;100.00;100337.82;1738523;82;21197;-79
2022/10/01 02:11:37;;;;;;;168.68;13.75;;;;;;;15.20;100.00;100334.30;1737979;82;21169;-78
2022/10/01 02:14:49;;;;;;;159.85;12.47;;;;;;;15.24;100.00;100336.09;1739174;82;21172;-78
2022/10/01 02:18:22;;;;;;;116.62;12.03;;;;;;;15.21;100.00;100333.23;1738588;82;21224;-78
2022/10/01 02:21:32;;;;;;;104.67;11.45;;;;;;;15.26;100.00;100327.95;1739030;82;21291;-78
2022/10/01 02:24:49;;;;;;;59.93;11.68;;;;;;;15.29;100.00;100325.30;1739098;82;21855;-78
2022/10/01 02:28:05;;;;;;;72.40;11.83;;;;;;;15.25;100.00;100330.93;1737780;82;21263;-78
2022/10/01 02:31:12;;;;;;;45.15;10.32;;;;;;;15.28;100.00;100330.50;1739185;82;21192;-78
2022/10/01 02:34:19;;;;;;;42.00;12.00;;;;;;;15.26;100.00;100333.47;1737908;82;21227;-78
2022/10/01 02:37:29;;;;;;;39.70;11.78;;;;;;;15.20;100.00;100331.55;1737889;82;21268;-78
2022/10/01 02:40:35;;;;;;;27.30;10.98;;;;;;;15.12;100.00;100335.00;1737849;82;21251;-78
2022/10/01 02:43:55;;;;;;;60.28;11.35;;;;;;;15.12;100.00;100335.00;1739104;82;21212;-78
2022/10/01 02:47:12;;;;;;;53.78;10.90;;;;;;;15.05;100.00;100338.55;1739277;82;21161;-78
2022/10/01 02:50:19;;;;;;;68.50;10.70;;;;;;;14.98;100.00;100336.84;1739167;82;21565;-78
2022/10/01 02:53:34;;;;;;;63.45;11.50;;;;;;;15.06;100.00;100339.44;1737873;82;21244;-78
2022/10/01 03:00:10;;;;;;;76.53;12.45;;;;;;;14.87;100.00;100347.92;1739316;82;21224;-78
2022/10/01 03:03:17;;;;;;;69.72;10.20;;;;;;;14.93;100.00;100353.98;1741327;82;21855;-78
2022/10/01 03:06:22;;;;;;;85.38;12.60;;;;;;;15.00;100.00;100356.75;1741315;82;21176;-78
2022/10/01 03:09:30;;;;;;;150.10;14.15;;;;;;;15.00;100.00;100356.23;1740177;82;21201;-78
2022/10/01 03:12:39;;;;;;;142.65;14.90;;;;;;;15.07;100.00;100357.66;1740044;82;21208;-78
2022/10/01 03:15:46;;;;;;;207.80;15.03;;;;;;;15.17;100.00;100360.88;1741432;82;21775;-78
2022/10/01 03:18:52;;;;;;;167.85;15.63;;;;;;;15.07;100.00;100354.38;1739953;82;21268;-78
2022/10/01 03:21:59;;;;;;;200.70;15.55;;;;;;;15.03;100.00;100357.20;1739988;82;21200;-78
2022/10/01 03:25:05;;;;;;;247.07;15.55;;;;;;;15.14;100.00;100361.80;1739908;82;21200;-78
2022/10/01 03:28:14;;;;;;;205.75;14.73;;;;;;;15.19;100.00;100359.28;1740100;82;21205;-79
2022/10/01 03:31:19;;;;;;;151.37;12.78;;;;;;;15.05;100.00;100361.97;1741387;82;21200;-78
2022/10/01 03:34:26;;;;;;;115.28;10.88;;;;;;;15.06;100.00;100368.36;1741323;82;21232;-79
2022/10/01 03:37:31;;;;;;;133.60;11.22;;;;;;;14.88;100.00;100370.27;1741316;82;21795;-78
2022/10/01 03:40:37;;;;;;;97.35;11.10;;;;;;;14.79;100.00;100372.33;1741264;82;21200;-78
2022/10/01 03:43:43;;;;;;;103.20;11.38;;;;;;;14.70;100.00;100372.69;1741124;82;21264;-79
2022/10/01 03:46:50;;;;;;;65.40;9.70;;;;;;;14.63;100.00;100384.17;1739826;82;21201;-78
2022/10/01 03:49:57;;;;;;;83.85;10.58;;;;;;;14.62;100.00;100376.97;1739847;82;21205;-80
2022/10/01 03:53:03;;;;;;;59.30;10.88;;;;;;;14.60;100.00;100372.20;1741296;82;21188;-78
2022/10/01 03:56:08;;;;;;;43.00;11.80;;;;;;;14.61;100.00;100382.16;1741381;82;21240;-78
2022/10/01 03:59:18;;;;;;;31.35;11.08;;;;;;;14.63;100.00;100385.02;1740719;82;21231;-78
2022/10/01 04:02:26;;;;;;;48.00;12.55;;;;;;;14.66;100.00;100376.89;1739171;82;21221;-79
2022/10/01 04:05:50;;;;;;;56.92;11.03;;;;;;;14.68;100.00;100379.78;1739251;82;21157;-78
2022/10/01 04:08:58;;;;;;;94.35;12.75;;;;;;;14.74;100.00;100383.63;1722175;82;21191;-78
2022/10/01 04:12:04;;;;;;;46.08;11.43;;;;;;;14.76;100.00;100374.62;1737738;82;21193;-79
2022/10/01 04:15:11;;;;;;;58.80;11.48;;;;;;;14.76;100.00;100371.88;1738674;82;21848;-78
2022/10/01 04:18:19;;;;;;;31.97;9.80;;;;;;;14.80;100.00;100373.17;1739477;82;21236;-78
2022/10/01 04:21:25;;;;;;;45.60;10.30;;;;;;;14.73;100.00;100380.03;1697431;84;21188;-78
2022/10/01 04:24:32;;;;;;;37.13;10.78;;;;;;;14.72;100.00;100378.30;1739248;82;21205;-78
2022/10/01 04:27:38;;;;;;;36.50;11.03;;;;;;;14.79;100.00;100374.23;1739314;82;21189;-78
2022/10/01 04:30:41;;;;;;;58.48;11.08;;;;;;;14.76;100.00;100387.86;1737672;82;21236;-78
2022/10/01 04:33:47;;;;;;;55.33;10.18;;;;;;;14.75;100.00;100390.83;1738799;82;21205;-78
2022/10/01 04:36:52;;;;;;;46.40;11.12;;;;;;;14.79;100.00;100390.76;1738707;82;21200;-78
2022/10/01 04:40:00;;;;;;;17.90;9.75;;;;;;;14.81;100.00;100388.11;1737896;82;21846;-78
2022/10/01 04:43:08;;;;;;;73.07;11.38;;;;;;;14.83;100.00;100395.66;1696783;84;22502;-78
2022/10/01 04:46:14;;;;;;;50.98;10.50;;;;;;;14.79;100.00;100390.76;1737823;82;21240;-78
2022/10/01 04:49:20;;;;;;;35.20;9.78;;;;;;;14.83;100.00;100393.44;1738522;82;21268;-78
2022/10/01 04:52:25;;;;;;;44.23;11.57;;;;;;;14.84;100.00;100399.26;1695746;84;21219;-78
2022/10/01 04:55:32;;;;;;;62.10;11.22;;;;;;;14.92;100.00;100399.11;1737639;82;21222;-79
2022/10/01 04:58:37;;;;;;;34.55;11.05;;;;;;;15.06;100.00;100392.63;1739090;82;21882;-79
2022/10/01 05:01:43;;;;;;;25.92;10.40;;;;;;;15.14;100.00;100390.73;1740240;81;21211;-79
2022/10/01 05:04:49;;;;;;;19.05;10.45;;;;;;;15.22;100.00;100398.84;1747202;82;21750;-79
2022/10/01 05:07:57;;;;;;;25.88;9.90;;;;;;;15.25;100.00;100399.81;1748656;82;21235;-79
2022/10/01 05:11:05;;;;;;;12.88;6.83;;;;;;;15.33;100.00;100401.84;1747586;82;21243;-79
2022/10/01 05:14:14;;;;;;;18.55;9.30;;;;;;;15.44;100.00;100396.83;1730049;82;21192;-79
2022/10/01 05:17:17;;;;;;;24.75;9.43;;;;;;;15.48;100.00;100396.20;1705290;84;21223;-79
2022/10/01 05:20:10;;;;;;;14.07;9.48;;;;;;;15.60;100.00;100394.53;1748222;82;21239;-79
2022/10/01 05:23:15;;;;;;;15.13;10.00;;;;;;;15.53;100.00;100380.43;1748528;82;21230;-79
2022/10/01 05:26:21;;;;;;;12.47;8.55;;;;;;;15.69;100.00;100377.31;1748598;82;21758;-78
2022/10/01 05:29:28;;;;;;;11.25;9.40;;;;;;;15.83;100.00;100380.95;1748751;82;21738;-79
2022/10/01 05:32:34;;;;;;;14.65;10.72;;;;;;;15.84;100.00;100384.88;1747297;82;21199;-78
2022/10/01 05:35:41;;;;;;;13.10;11.18;;;;;;;16.02;100.00;100393.08;1748689;82;21188;-79
2022/10/01 05:38:47;;;;;;;15.15;12.78;;;;;;;16.05;100.00;100394.91;1748592;82;21192;-78
2022/10/01 05:41:54;;;;;;;14.33;11.20;;;;;;;16.17;100.00;100392.89;1747323;82;21224;-77
2022/10/01 05:45:02;;;;;;;13.62;12.15;;;;;;;16.23;100.00;100387.89;1747856;82;21243;-78
2022/10/01 05:48:10;;;;;;;14.07;11.55;;;;;;;16.32;100.00;100389.38;1747314;82;21342;-78
2022/10/01 05:51:15;;;;;;;13.13;10.13;;;;;;;16.26;100.00;100387.48;1747721;82;21786;-78
2022/10/01 05:54:23;;;;;;;13.53;11.15;;;;;;;16.42;100.00;100387.08;1748605;82;21770;-78
2022/10/01 05:57:30;;;;;;;14.58;12.10;;;;;;;16.50;100.00;100388.22;1748542;82;21192;-77
2022/10/01 06:00:35;;;;;;;13.10;10.85;;;;;;;16.69;100.00;100388.41;1748233;82;21814;-78
2022/10/01 06:03:37;;;;;;;13.08;10.85;;;;;;;16.86;100.00;100389.70;1748177;82;21189;-78
2022/10/01 06:06:45;;;;;;;15.65;12.75;;;;;;;16.96;100.00;100391.48;1748818;82;21366;-78
2022/10/01 06:09:52;;;;;;;12.93;11.63;;;;;;;17.18;100.00;100399.52;1748695;82;21176;-78
2022/10/01 06:12:59;;;;;;;26.27;10.80;;;;;;;17.36;100.00;100399.64;1748770;82;21766;-78
2022/10/01 06:16:05;;;;;;;13.22;11.22;;;;;;;17.53;100.00;100406.92;1748692;82;21736;-78
2022/10/01 06:19:10;;;;;;;15.18;11.00;;;;;;;17.58;100.00;100406.57;1748746;82;21188;-78
2022/10/01 06:22:16;;;;;;;10.18;8.93;;;;;;;17.79;100.00;100404.61;1747619;82;21295;-78
2022/10/01 06:25:22;;;;;;;12.65;10.05;;;;;;;17.93;100.00;100408.99;1747322;82;21203;-78
2022/10/01 06:28:28;;;;;;;12.58;10.70;;;;;;;17.88;100.00;100406.05;1748766;82;21189;-79
2022/10/01 06:31:36;;;;;;;11.60;9.83;;;;;;;17.96;100.00;100415.44;1747961;82;21231;-79
2022/10/01 06:34:43;;;;;;;11.48;9.33;;;;;;;18.01;100.00;100414.23;1747250;82;21184;-79
2022/10/01 06:37:50;;;;;;;14.05;10.15;;;;;;;18.02;100.00;100402.63;1747318;82;21251;-79
2022/10/01 06:41:03;;;;;;;12.65;10.32;;;;;;;18.17;100.00;100406.50;1748478;82;21758;-79
2022/10/01 06:44:08;;;;;;;11.60;9.28;;;;;;;18.18;100.00;100405.41;1748411;82;21354;-78
2022/10/01 06:47:15;;;;;;;12.05;10.00;;;;;;;18.22;100.00;100410.28;1748655;82;21765;-78
2022/10/01 06:50:21;;;;;;;14.53;11.25;;;;;;;18.27;100.00;100403.53;1748712;82;21185;-78
2022/10/01 06:53:27;;;;;;;10.58;9.05;;;;;;;18.29;100.00;100403.30;1747261;82;21196;-78
2022/10/01 06:56:33;;;;;;;12.20;10.40;;;;;;;18.39;100.00;100403.64;1748606;82;21782;-78
2022/10/01 06:59:40;;;;;;;12.55;11.10;;;;;;;18.52;100.00;100398.00;1748560;82;21188;-78
2022/10/01 07:02:46;;;;;;;11.48;10.32;;;;;;;18.65;100.00;100400.66;1747009;82;21279;-78
2022/10/01 07:05:52;;;;;;;12.30;10.63;;;;;;;18.75;100.00;100402.94;1748135;81;21286;-78
2022/10/01 07:08:59;;;;;;;8.35;7.47;;;;;;;18.82;100.00;100402.86;1748898;82;21319;-78
2022/10/01 07:12:04;;;;;;;9.78;8.68;;;;;;;18.79;100.00;100397.80;1674536;85;21211;-78
2022/10/01 07:15:13;;;;;;;9.35;8.38;;;;;;;18.80;100.00;100400.33;1701360;84;21326;-79
2022/10/01 07:18:18;;;;;;;10.48;9.45;;;;;;;18.81;100.00;100395.63;1674797;85;21861;-79
2022/10/01 07:21:25;;;;;;;10.13;9.13;;;;;;;18.83;100.00;100401.81;1703345;84;21283;-78
2022/10/01 07:24:35;;;;;;;9.63;8.68;;;;;;;18.92;100.00;100396.83;1701111;84;21248;-79
2022/10/01 07:27:45;;;;;;;10.05;8.98;;;;;;;18.95;100.00;100406.89;1678160;84;21346;-79
2022/10/01 07:31:11;;;;;;;9.88;8.68;;;;;;;19.03;100.00;100409.91;1674955;85;21247;-79
2022/10/01 07:34:18;;;;;;;10.10;8.93;;;;;;;19.08;100.00;100408.14;1702348;84;21235;-79
2022/10/01 07:37:24;;;;;;;12.90;8.73;;;;;;;19.28;100.00;100409.84;1701499;84;22481;-79
2022/10/01 07:40:29;;;;;;;10.85;9.28;;;;;;;19.41;100.00;100403.60;1675131;85;21766;-79
2022/10/01 07:43:38;;;;;;;11.80;9.48;;;;;;;19.55;100.00;100404.83;1701948;84;21220;-79
2022/10/01 07:46:50;;;;;;;18.92;9.43;;;;;;;19.62;100.00;100410.64;1701408;84;21406;-79
2022/10/01 07:50:33;;;;;;;9.53;8.45;;;;;;;19.68;100.00;100401.92;1672352;85;21329;-79
2022/10/01 07:53:57;;;;;;;;;;;;;;;;;;;;;
2022/10/01 07:57:44;;;;;;;13.95;8.85;;;;;;;19.73;100.00;100395.67;1701646;84;21191;-79
2022/10/01 08:01:08;;;;;;;10.25;9.05;;;;;;;19.85;100.00;100402.94;1698815;84;21211;-79
2022/10/01 08:07:53;;;;;;;12.55;7.97;;;;;;;20.05;100.00;100405.45;1731511;82;21278;-78
2022/10/01 08:11:02;;;;;;;8.55;7.12;;;;;;;20.25;100.00;100402.36;1749465;82;21160;-79
2022/10/01 08:14:11;;;;;;;10.23;7.50;;;;;;;20.16;100.00;100408.80;1748359;82;21264;-79
2022/10/01 08:17:16;;;;;;;10.53;7.03;;;;;;;20.30;100.00;100405.27;1748359;82;21208;-78
2022/10/01 08:20:30;;;;;;;7.83;7.03;;;;;;;20.44;100.00;100414.24;1706013;84;21788;-79
2022/10/01 08:24:04;;;;;;;;;;;;;;;;;;;;;
2022/10/01 08:27:23;;;;;;;9.05;6.75;;;;;;;20.63;100.00;100402.52;1877215;76;22223;-79
2022/10/01 08:30:29;;;;;;;10.23;6.08;;;;;;;20.58;100.00;100413.52;1781308;80;21177;-79
2022/10/01 08:33:38;;;;;;;9.20;7.10;;;;;;;20.62;100.00;100405.84;1784562;79;21287;-79
2022/10/01 08:36:45;;;;;;;7.08;6.37;;;;;;;20.64;100.00;100401.43;1780349;80;21161;-78
2022/10/01 08:39:51;;;;;;;8.98;6.83;;;;;;;20.62;100.00;100402.23;1781509;80;21708;-78
2022/10/01 08:43:08;;;;;;;13.00;6.70;;;;;;;20.65;100.00;100396.17;1781471;80;21169;-78
2022/10/01 08:46:23;;;;;;;11.95;7.35;;;;;;;20.65;100.00;100401.21;1750015;82;21204;-78
2022/10/01 08:49:39;;;;;;;7.55;6.75;;;;;;;20.67;100.00;100402.34;1750655;82;21746;-78
2022/10/01 08:52:53;;;;;;;9.45;6.00;;;;;;;20.70;100.00;100394.90;1750680;82;21189;-79
2022/10/01 08:55:59;;;;;;;9.53;6.10;;;;;;;20.82;100.00;100390.75;1749212;82;21590;-79
2022/10/01 08:59:06;;;;;;;7.95;6.53;;;;;;;20.88;100.00;100381.44;1728089;82;21251;-79
2022/10/01 09:02:40;;;;;;;7.58;6.33;;;;;;;20.89;100.00;100382.60;1750490;82;21193;-79
2022/10/01 09:06:08;;;;;;;7.17;6.00;;;;;;;20.87;100.00;100383.91;1750489;82;21283;-79
2022/10/01 09:09:40;;;;;;;8.08;6.80;;;;;;;20.85;100.00;100377.22;1749185;82;21532;-79
2022/10/01 09:13:03;;;;;;;5.75;5.15;;;;;;;20.81;100.00;100382.95;1750536;82;21169;-79
2022/10/01 09:16:43;;;;;;;8.65;6.28;;;;;;;20.79;100.00;100391.22;1750157;82;21227;-79
2022/10/01 09:20:08;;;;;;;9.20;6.92;;;;;;;20.73;100.00;100388.03;1750319;82;21192;-80
2022/10/01 09:23:29;;;;;;;7.97;7.17;;;;;;;20.73;100.00;100388.88;1750003;82;21196;-80
2022/10/01 09:26:35;;;;;;;13.05;7.90;;;;;;;20.85;100.00;100383.33;1739041;81;21300;-79
2022/10/01 09:29:55;;;;;;;8.18;7.37;;;;;;;20.97;100.00;100377.20;1712441;84;21216;-79
2022/10/01 09:33:24;;;;;;;12.03;7.53;;;;;;;21.10;100.00;100383.89;1729019;83;21247;-78
2022/10/01 09:36:36;;;;;;;9.25;6.92;;;;;;;21.15;100.00;100374.82;1716905;83;21189;-79
2022/10/01 09:39:50;;;;;;;8.55;7.10;;;;;;;21.29;100.00;100372.63;1747385;82;21200;-79
2022/10/01 09:42:56;;;;;;;9.60;6.58;;;;;;;21.29;100.00;100367.06;1747599;82;21189;-78
2022/10/01 09:46:05;;;;;;;9.15;6.85;;;;;;;21.35;100.00;100370.27;1747259;82;21196;-79
2022/10/01 09:49:25;;;;;;;9.08;6.92;;;;;;;21.38;100.00;100365.62;1747194;82;21258;-78
2022/10/01 09:52:42;;;;;;;9.13;7.05;;;;;;;21.39;100.00;100357.56;1747180;82;21799;-79
2022/10/01 09:55:50;;;;;;;8.03;7.15;;;;;;;21.42;99.79;100362.64;1747194;82;21252;-78
2022/10/01 09:59:00;;;;;;;11.03;7.67;;;;;;;21.40;100.00;100355.08;1747634;82;21220;-79
2022/10/01 10:02:06;;;;;;;8.80;7.72;;;;;;;21.41;99.89;100356.79;1746839;82;21244;-78
2022/10/01 10:05:27;;;;;;;8.93;8.03;;;;;;;21.40;98.89;100345.34;1747026;82;21209;-79
2022/10/01 10:08:43;;;;;;;11.05;8.70;;;;;;;21.43;99.20;100344.86;1747339;82;21184;-78
2022/10/01 10:11:42;;;;;;;10.78;8.75;;;;;;;21.42;98.91;100350.13;1747641;82;21232;-78
2022/10/01 10:14:43;;;;;;;13.22;9.70;;;;;;;21.46;98.81;100356.89;1747619;82;21193;-78
2022/10/01 10:17:29;;;;;;;13.98;10.10;;;;;;;21.49;98.99;100349.97;1746735;82;21833;-79
2022/10/01 10:20:47;;;;;;;11.40;9.70;;;;;;;21.56;98.32;100347.35;1747682;82;21208;-78
2022/10/01 10:23:33;;;;;;;11.12;9.58;;;;;;;21.57;98.67;100335.67;1747773;82;21192;-78
2022/10/01 10:26:34;;;;;;;13.43;11.08;;;;;;;21.60;98.58;100329.62;1747425;82;21208;-79
2022/10/01 10:29:42;;;;;;;11.85;10.08;;;;;;;21.60;97.96;100337.97;1740049;82;21200;-78
2022/10/01 10:32:48;;;;;;;14.25;12.73;;;;;;;21.63;98.61;100332.73;1739125;82;21232;-78
2022/10/01 10:35:56;;;;;;;13.38;11.22;;;;;;;21.64;98.38;100326.61;1739733;82;21200;-79
2022/10/01 10:39:02;;;;;;;15.08;12.75;;;;;;;21.78;98.01;100320.19;1740176;82;21204;-79
2022/10/01 10:42:07;;;;;;;15.60;11.78;;;;;;;21.83;98.37;100316.11;1739708;82;21256;-79
2022/10/01 10:45:11;;;;;;;15.32;12.75;;;;;;;21.89;98.02;100307.62;1738715;82;21249;-78
2022/10/01 10:48:21;;;;;;;16.23;12.03;;;;;;;21.88;96.79;100307.33;1738591;82;21339;-78
2022/10/01 10:51:27;;;;;;;16.10;13.22;;;;;;;21.88;96.71;100296.74;1739931;82;21201;-78
2022/10/01 10:54:41;;;;;;;15.93;12.82;;;;;;;21.85;97.32;100299.47;1738383;82;21217;-79
2022/10/01 10:57:48;;;;;;;14.23;12.60;;;;;;;21.88;97.43;100291.17;1739153;82;21252;-79
2022/10/01 11:00:56;;;;;;;15.38;12.70;;;;;;;21.84;97.24;100291.37;1739661;82;21257;-79
2022/10/01 11:04:06;;;;;;;15.35;12.93;;;;;;;21.85;97.22;100297.23;1738560;82;21287;-79
2022/10/01 11:07:12;;;;;;;15.13;13.53;;;;;;;21.86;98.39;100297.52;1739794;82;21228;-79
2022/10/01 11:10:52;;;;;;;19.48;14.30;;;;;;;21.89;99.06;100288.13;1739650;82;21308;-79
2022/10/01 11:14:53;;;;;;;18.82;14.95;;;;;;;22.01;97.66;100288.03;1710748;82;21331;-79
2022/10/01 11:18:38;;;;;;;25.40;14.35;;;;;;;22.02;97.71;100285.58;1709200;84;21822;-79
2022/10/01 11:22:14;;;;;;;16.40;13.85;;;;;;;22.07;98.03;100289.84;1713528;82;21260;-78
2022/10/01 11:25:54;;;;;;;20.00;15.23;;;;;;;22.15;97.51;100285.24;1739992;82;21204;-78
2022/10/01 11:29:19;;;;;;;18.30;15.13;;;;;;;22.19;97.75;100278.08;1725074;82;21283;-78
2022/10/01 11:32:47;;;;;;;19.73;15.18;;;;;;;22.38;97.26;100269.45;1771047;81;21184;-79
2022/10/01 11:36:13;;;;;;;20.80;14.35;;;;;;;22.44;96.86;100269.30;1771101;81;21216;-79
2022/10/01 11:39:22;;;;;;;18.52;15.75;;;;;;;22.52;95.46;100269.39;1733255;82;21237;-79
2022/10/01 11:42:34;;;;;;;21.02;15.35;;;;;;;22.58;95.18;100259.98;1770918;81;21223;-79
2022/10/01 11:45:52;;;;;;;17.02;13.80;;;;;;;22.67;95.57;100254.82;1732777;82;21228;-79
2022/10/01 11:49:02;;;;;;;22.85;15.80;;;;;;;22.81;95.02;100253.34;1769818;81;21216;-79
2022/10/01 11:52:41;;;;;;;19.00;14.90;;;;;;;22.93;93.92;100249.09;1732896;82;21744;-79
2022/10/01 11:59:36;;;;;;;19.57;14.45;;;;;;;23.13;91.67;100245.14;1769863;81;21236;-79
2022/10/01 12:02:49;;;;;;;16.32;13.35;;;;;;;23.19;90.93;100237.11;1769668;81;21189;-79
2022/10/01 12:05:54;;;;;;;20.60;14.25;;;;;;;23.30;90.27;100235.86;1732789;82;21189;-79
2022/10/01 12:09:15;;;;;;;15.38;12.95;;;;;;;23.41;88.64;100234.30;1770158;81;21220;-80
2022/10/01 12:12:43;;;;;;;20.97;13.20;;;;;;;23.43;89.00;100229.84;1771002;81;21180;-80
2022/10/01 12:16:29;;;;;;;18.35;13.55;;;;;;;23.56;88.48;100226.63;1734315;82;21188;-80
2022/10/01 12:19:42;;;;;;;20.45;13.05;;;;;;;23.64;87.75;100220.61;1769661;81;21240;-79
2022/10/01 12:22:49;;;;;;;17.98;12.45;;;;;;;23.70;87.47;100221.48;1734092;82;21244;-78
2022/10/01 12:26:00;;;;;;;17.10;13.03;;;;;;;23.74;85.62;100219.02;1770923;81;22855;-78
2022/10/01 12:29:22;;;;;;;19.45;12.53;;;;;;;23.68;84.94;100227.91;1732546;82;21221;-79
2022/10/01 12:32:52;;;;;;;17.60;12.78;;;;;;;23.64;85.07;100223.40;1769623;81;21201;-79
2022/10/01 12:36:22;;;;;;;17.40;12.93;;;;;;;23.63;85.59;100220.30;1771019;81;21224;-78
2022/10/01 12:39:42;;;;;;;17.20;12.47;;;;;;;23.79;84.84;100212.92;1732766;82;21229;-79
2022/10/01 12:43:12;;;;;;;16.80;11.43;;;;;;;23.68;84.58;100209.76;1771341;81;21188;-78
2022/10/01 12:46:32;;;;;;;16.70;11.45;;;;;;;23.70;83.63;100208.92;1770848;81;21181;-78
2022/10/01 12:49:46;;;;;;;18.87;11.80;;;;;;;23.65;83.65;100198.55;1732866;82;21197;-78
2022/10/01 12:53:31;;;;;;;14.15;11.55;;;;;;;23.74;83.69;100199.47;1748088;81;21383;-79
2022/10/01 12:56:46;;;;;;;18.30;11.68;;;;;;;23.71;83.54;100200.83;1734110;82;21197;-78
2022/10/01 13:00:17;;;;;;;15.75;10.78;;;;;;;23.53;84.25;100197.87;1777416;79;21810;-79
2022/10/01 13:03:52;;;;;;;18.95;10.78;;;;;;;23.54;84.97;100195.36;1770896;81;21189;-79
2022/10/01 13:07:25;;;;;;;15.25;11.80;;;;;;;23.54;85.32;100198.15;1769290;81;21181;-79
2022/10/01 13:10:48;;;;;;;17.92;11.70;;;;;;;23.51;85.24;100186.11;1783714;79;21791;-79
2022/10/01 13:13:57;;;;;;;14.68;10.75;;;;;;;23.48;85.71;100192.23;1771088;79;21240;-78
2022/10/01 13:17:20;;;;;;;16.02;11.68;;;;;;;23.45;85.94;100192.20;1800492;79;21184;-78
2022/10/01 13:20:39;;;;;;;15.00;10.38;;;;;;;23.45;85.04;100194.16;1800294;79;21240;-79
2022/10/01 13:24:08;;;;;;;18.57;11.83;;;;;;;23.41;84.15;100190.20;1732912;82;21181;-78
2022/10/01 13:27:21;;;;;;;18.52;10.80;;;;;;;23.40;84.27;100192.70;1803069;79;21212;-79
2022/10/01 13:30:31;;;;;;;16.15;10.85;;;;;;;23.43;84.23;100186.58;1801571;79;21169;-78
2022/10/01 13:33:39;;;;;;;16.50;10.75;;;;;;;23.46;83.48;100183.27;1803265;79;21142;-78
2022/10/01 13:36:45;;;;;;;16.40;10.70;;;;;;;23.41;84.04;100178.48;1800776;79;21197;-78
2022/10/01 13:39:52;;;;;;;14.98;11.33;;;;;;;23.47;83.31;100179.36;1801434;79;21248;-78
2022/10/01 13:42:58;;;;;;;20.97;11.48;;;;;;;23.35;83.71;100170.33;1801412;79;21351;-78
2022/10/01 13:46:04;;;;;;;13.10;10.13;;;;;;;23.39;83.23;100165.91;1802710;79;21161;-79
2022/10/01 13:49:15;;;;;;;15.55;10.03;;;;;;;23.34;83.14;100161.68;1802479;79;21256;-79
2022/10/01 13:52:28;;;;;;;23.98;10.98;;;;;;;23.30;83.02;100173.08;1802625;79;21295;-78
2022/10/01 13:55:36;;;;;;;15.00;10.20;;;;;;;23.14;83.48;100163.69;1802621;79;21181;-78
2022/10/01 13:58:47;;;;;;;15.45;10.28;;;;;;;23.11;82.93;100161.44;1802722;79;21189;-78
2022/10/01 14:01:52;;;;;;;17.73;10.30;;;;;;;23.11;82.55;100158.09;1801204;79;21161;-79
2022/10/01 14:04:58;;;;;;;15.90;10.50;;;;;;;23.14;81.98;100163.69;1802626;79;21169;-78
2022/10/01 14:08:17;;;;;;;18.27;10.63;;;;;;;23.08;81.98;100156.38;1802805;79;21212;-78
2022/10/01 14:18:27;;;;;;;19.27;10.72;;;;;;;22.75;84.11;100154.58;1733339;82;21205;-77
2022/10/01 14:22:10;;;;;;;18.05;11.83;;;;;;;22.58;85.44;100140.69;1769392;80;21256;-79
2022/10/01 14:25:22;;;;;;;26.17;11.85;;;;;;;22.50;86.08;100150.37;1770721;81;21181;-78
2022/10/01 14:28:39;;;;;;;;;;;;;;;22.34;87.21;100144.28;1774198;81;21232;-78
2022/10/01 14:31:58;;;;;;;17.90;11.40;;;;;;;22.19;88.24;100144.36;1769518;79;20635;-79
2022/10/01 14:35:28;;;;;;;28.38;12.60;;;;;;;22.12;89.02;100138.70;1700973;84;21248;-78
2022/10/01 14:38:34;;;;;;;16.00;11.75;;;;;;;22.09;89.58;100133.60;1775540;79;21189;-78
2022/10/01 14:41:41;;;;;;;16.40;11.28;;;;;;;22.08;89.91;100126.35;1768732;81;21181;-78
2022/10/01 14:44:50;;;;;;;17.30;10.40;;;;;;;21.99;90.43;100124.55;1770828;81;21360;-79
2022/10/01 14:47:55;;;;;;;18.77;11.35;;;;;;;21.86;91.54;100133.25;1770825;81;21181;-79
2022/10/01 14:51:03;;;;;;;24.60;12.43;;;;;;;21.77;92.19;100134.23;1770102;81;21408;-79
2022/10/01 14:54:08;;;;;;;20.25;12.03;;;;;;;21.72;92.78;100134.70;1770626;81;21205;-78